Time;durP1;ratioP1;P1;durP2;ratioP2;P2;SDS_P1;SDS_P2;PMS_P1;PMS_P2;Temp;Humidity;BMP_temperature;BMP_pressure;BME280_temperature;BME280_humidity;BME280_pressure;Samples;Min_cycle;Max_cycle;Signal;HPM_P1;HPM_P2
2022/10/28 00:01:24;;;;;;;12.90;9.23;;;;;;;13.84;100.00;101849.28;5076228;28;20444;-85
2022/10/28 00:03:55;;;;;;;14.93;8.00;;;;;;;13.82;100.00;101839.56;5076204;28;20044;-86
2022/10/28 00:06:31;;;;;;;15.68;8.75;;;;;;;13.80;100.00;101846.63;5056734;28;20043;-86
2022/10/28 00:09:00;;;;;;;13.18;7.97;;;;;;;13.76;100.00;101845.72;5111266;28;20039;-86
2022/10/28 00:11:32;;;;;;;13.05;7.47;;;;;;;13.73;100.00;101839.53;5085717;28;20647;-85
2022/10/28 00:14:04;;;;;;;13.60;8.10;;;;;;;13.68;100.00;101826.22;5064090;28;20040;-86
2022/10/28 00:16:36;;;;;;;14.57;7.82;;;;;;;13.67;100.00;101836.81;5073774;28;20043;-85
2022/10/28 00:19:08;;;;;;;15.57;8.27;;;;;;;13.63;100.00;101842.09;5104234;28;20046;-86
2022/10/28 00:21:37;;;;;;;19.85;8.48;;;;;;;13.61;100.00;101842.94;5088060;28;20051;-85
2022/10/28 00:24:08;;;;;;;16.92;9.25;;;;;;;13.59;100.00;101834.13;5064984;28;20051;-86
2022/10/28 00:26:38;;;;;;;14.02;8.50;;;;;;;13.58;100.00;101830.59;5070227;28;20052;-85
2022/10/28 00:29:10;;;;;;;14.48;8.95;;;;;;;13.59;100.00;101824.44;5087045;27;20039;-86
2022/10/28 00:31:38;;;;;;;15.15;9.00;;;;;;;13.60;100.00;101818.25;5090355;28;20052;-85
2022/10/28 00:34:14;;;;;;;14.75;9.10;;;;;;;13.63;100.00;101818.28;5094040;28;20060;-86
2022/10/28 00:36:44;;;;;;;21.95;9.75;;;;;;;13.67;100.00;101823.56;5078036;28;20039;-85
2022/10/28 00:39:19;;;;;;;17.55;9.00;;;;;;;13.70;100.00;101824.47;5025461;28;20205;-85
2022/10/28 00:41:56;;;;;;;15.07;8.88;;;;;;;13.74;100.00;101820.09;5066180;28;20043;-85
2022/10/28 00:44:57;;;;;;;15.45;9.48;;;;;;;13.76;100.00;101810.38;5087325;28;20348;-86
2022/10/28 00:47:55;;;;;;;17.67;8.85;;;;;;;13.78;100.00;101801.59;5072320;28;20161;-85
2022/10/28 00:50:44;;;;;;;17.88;9.35;;;;;;;13.80;100.00;101793.66;5057723;28;20657;-85
2022/10/28 00:53:25;;;;;;;19.02;9.50;;;;;;;13.81;100.00;101777.72;5057690;28;20398;-86
2022/10/28 00:55:55;;;;;;;13.30;9.40;;;;;;;13.83;100.00;101761.84;5089130;28;20505;-86
2022/10/28 00:58:25;;;;;;;17.10;9.97;;;;;;;13.86;100.00;101748.63;5071053;28;20135;-87
2022/10/28 01:00:56;;;;;;;13.02;9.52;;;;;;;13.86;100.00;101753.94;5070893;28;20563;-86
2022/10/28 01:03:25;;;;;;;20.27;10.18;;;;;;;13.86;100.00;101761.88;5077296;28;20044;-86
2022/10/28 01:05:54;;;;;;;16.85;9.82;;;;;;;13.88;100.00;101762.75;5079968;28;20039;-85
2022/10/28 01:08:22;;;;;;;22.40;9.55;;;;;;;13.89;100.00;101763.63;5074999;27;20059;-85
2022/10/28 01:11:20;;;;;;;18.65;9.20;;;;;;;13.92;100.00;101766.31;5073999;28;20048;-85
2022/10/28 01:14:38;;;;;;;17.30;9.75;;;;;;;13.95;100.00;101761.91;5086823;28;20035;-86
2022/10/28 01:17:14;;;;;;;12.65;9.48;;;;;;;13.97;100.00;101764.53;5025041;28;20403;-85
2022/10/28 01:19:48;;;;;;;19.60;10.05;;;;;;;13.99;100.00;101774.28;5013923;28;20037;-85
2022/10/28 01:22:24;;;;;;;18.88;10.45;;;;;;;14.02;100.00;101774.28;5066776;28;20746;-85
2022/10/28 01:25:25;;;;;;;20.13;9.38;;;;;;;14.04;100.00;101764.59;5051319;28;20122;-85
2022/10/28 01:28:27;;;;;;;16.92;10.38;;;;;;;14.06;100.00;101769.00;5068625;28;20051;-85
2022/10/28 01:31:01;;;;;;;16.58;10.90;;;;;;;14.07;100.00;101784.03;5107951;28;20048;-86
2022/10/28 01:33:34;;;;;;;17.73;8.77;;;;;;;14.06;100.00;101775.19;5090064;28;20420;-85
2022/10/28 01:36:22;;;;;;;20.60;9.90;;;;;;;14.07;100.00;101781.41;5065281;28;20055;-85
2022/10/28 01:38:59;;;;;;;17.33;9.43;;;;;;;14.07;100.00;101778.75;5068405;28;20059;-85
2022/10/28 01:41:30;;;;;;;17.83;8.63;;;;;;;14.05;100.00;101773.44;5070053;28;20048;-85
2022/10/28 01:44:10;;;;;;;16.92;9.77;;;;;;;14.05;100.00;101770.78;5092508;28;20508;-85
2022/10/28 01:46:50;;;;;;;17.17;9.98;;;;;;;14.02;100.00;101762.81;5096343;28;20047;-85
2022/10/28 01:49:26;;;;;;;16.30;9.93;;;;;;;13.99;100.00;101758.41;5087470;28;20043;-85
2022/10/28 01:52:00;;;;;;;14.13;8.85;;;;;;;13.96;100.00;101761.03;5073558;28;20036;-85
2022/10/28 01:54:33;;;;;;;20.02;9.90;;;;;;;13.93;100.00;101757.47;5067997;28;20044;-85
2022/10/28 01:57:03;;;;;;;13.05;8.13;;;;;;;13.91;100.00;101745.97;5077201;28;20067;-85
2022/10/28 01:59:34;;;;;;;12.68;9.32;;;;;;;13.87;100.00;101752.16;5061415;28;20063;-85
2022/10/28 02:02:03;;;;;;;21.08;10.75;;;;;;;13.82;100.00;101744.19;5064214;28;20028;-85
2022/10/28 02:04:31;;;;;;;16.60;10.98;;;;;;;13.78;100.00;101742.38;5040344;28;20051;-85
2022/10/28 02:07:01;;;;;;;17.80;10.48;;;;;;;13.75;100.00;101742.41;5073045;28;20040;-84
2022/10/28 02:09:41;;;;;;;18.67;9.65;;;;;;;13.72;100.00;101742.38;5053778;28;20036;-84
2022/10/28 02:12:32;;;;;;;16.25;10.35;;;;;;;13.67;100.00;101749.41;5076232;28;20051;-84
2022/10/28 02:15:45;;;;;;;13.77;10.05;;;;;;;13.63;100.00;101746.75;5057583;28;20050;-86
2022/10/28 02:18:33;;;;;;;24.67;11.57;;;;;;;13.58;100.00;101751.13;5083258;28;20268;-86
2022/10/28 02:21:17;;;;;;;19.83;10.57;;;;;;;13.57;100.00;101748.47;5091127;28;20056;-85
2022/10/28 02:24:10;;;;;;;26.48;11.18;;;;;;;13.57;100.00;101749.38;5076725;28;20085;-85
2022/10/28 02:26:46;;;;;;;13.30;10.18;;;;;;;13.56;100.00;101752.91;5093539;28;20056;-85
2022/10/28 02:29:28;;;;;;;21.45;10.25;;;;;;;13.54;100.00;101753.78;5054889;28;20165;-86
2022/10/28 02:32:03;;;;;;;17.75;11.35;;;;;;;13.50;100.00;101744.06;5100617;28;20047;-86
2022/10/28 02:34:37;;;;;;;22.83;11.75;;;;;;;13.42;100.00;101752.84;5075721;28;20051;-85
2022/10/28 02:37:14;;;;;;;16.52;10.88;;;;;;;13.37;100.00;101754.56;5084874;28;20043;-86
2022/10/28 02:39:47;;;;;;;14.77;10.40;;;;;;;13.33;100.00;101754.53;5089739;28;20042;-85
2022/10/28 02:42:46;;;;;;;20.40;11.68;;;;;;;13.31;100.00;101753.63;5089648;28;20036;-85
2022/10/28 02:45:35;;;;;;;18.45;12.05;;;;;;;13.28;100.00;101746.53;5060663;28;20259;-84
2022/10/28 02:48:10;;;;;;;19.80;12.30;;;;;;;13.30;100.00;101749.19;5087681;28;20062;-85
2022/10/28 02:50:45;;;;;;;18.70;11.48;;;;;;;13.29;100.00;101747.41;5091621;28;20039;-84
2022/10/28 02:53:22;;;;;;;26.55;13.18;;;;;;;13.29;100.00;101742.09;5060069;28;20059;-85
2022/10/28 02:55:54;;;;;;;22.48;13.00;;;;;;;13.29;100.00;101743.00;5081794;28;20055;-85
2022/10/28 02:58:23;;;;;;;23.10;13.77;;;;;;;13.30;100.00;101746.53;5075661;28;20040;-85
2022/10/28 03:00:51;;;;;;;22.40;13.15;;;;;;;13.29;100.00;101735.06;5064797;28;20051;-85
2022/10/28 03:03:20;;;;;;;23.85;12.35;;;;;;;13.29;100.00;101732.44;5079108;28;20138;-85
2022/10/28 03:05:48;;;;;;;23.67;12.73;;;;;;;13.30;100.00;101735.94;5093650;28;20058;-85
2022/10/28 03:08:16;;;;;;;24.10;14.75;;;;;;;13.30;100.00;101733.31;5091267;28;20032;-85
2022/10/28 03:10:45;;;;;;;23.40;13.48;;;;;;;13.29;100.00;101719.19;5080666;28;20043;-85
2022/10/28 03:13:13;;;;;;;24.70;14.10;;;;;;;13.29;100.00;101723.56;5074280;27;20044;-85
2022/10/28 03:15:42;;;;;;;22.65;12.73;;;;;;;13.26;100.00;101714.75;5043653;28;20393;-85
2022/10/28 03:18:11;;;;;;;19.92;13.48;;;;;;;13.26;100.00;101703.28;5063316;28;20429;-85
2022/10/28 03:20:39;;;;;;;24.70;14.10;;;;;;;13.24;100.00;101700.63;5074394;28;20058;-85
2022/10/28 03:23:08;;;;;;;24.00;13.40;;;;;;;13.24;100.00;101703.25;5034113;28;20142;-86
2022/10/28 03:25:45;;;;;;;24.63;13.02;;;;;;;13.23;100.00;101706.81;5076283;28;20071;-86
2022/10/28 03:28:13;;;;;;;28.90;15.10;;;;;;;13.24;100.00;101702.38;5093484;28;20054;-86
2022/10/28 03:30:42;;;;;;;30.80;18.77;;;;;;;13.24;100.00;101699.75;5052877;28;20054;-85
2022/10/28 03:33:14;;;;;;;31.60;17.15;;;;;;;13.23;100.00;101695.31;5071557;28;20172;-85
2022/10/28 03:35:43;;;;;;;22.48;13.38;;;;;;;13.22;100.00;101696.19;5072486;28;20512;-85
2022/10/28 03:38:12;;;;;;;27.40;14.25;;;;;;;13.20;100.00;101693.53;5076914;28;20050;-85
2022/10/28 03:40:40;;;;;;;28.05;14.45;;;;;;;13.19;100.00;101696.16;5073856;28;20028;-85
2022/10/28 03:43:11;;;;;;;29.55;14.95;;;;;;;13.20;100.00;101695.31;5073020;28;20268;-86
2022/10/28 03:45:40;;;;;;;23.40;14.20;;;;;;;13.19;100.00;101689.09;5075531;28;20036;-85
2022/10/28 03:48:11;;;;;;;22.40;13.43;;;;;;;13.17;100.00;101688.22;5036960;28;20048;-85
2022/10/28 03:50:40;;;;;;;24.95;14.18;;;;;;;13.18;100.00;101692.66;5083851;28;20393;-85
2022/10/28 03:53:12;;;;;;;27.92;14.45;;;;;;;13.17;100.00;101698.81;5066821;28;20044;-86
2022/10/28 03:55:41;;;;;;;24.45;14.90;;;;;;;13.17;100.00;101684.69;5077011;28;20048;-85
2022/10/28 03:58:10;;;;;;;20.60;14.23;;;;;;;13.17;100.00;101674.97;5045171;28;20048;-85
2022/10/28 04:00:38;;;;;;;22.58;14.40;;;;;;;13.17;100.00;101674.97;5060622;28;20036;-85
2022/10/28 04:03:07;;;;;;;29.95;14.98;;;;;;;13.17;100.00;101669.69;5049309;28;20047;-85
2022/10/28 04:05:48;;;;;;;25.77;14.00;;;;;;;13.16;100.00;101672.34;5078889;28;20043;-85
2022/10/28 04:08:18;;;;;;;21.13;13.30;;;;;;;13.15;100.00;101670.56;5088090;28;20047;-85
2022/10/28 04:10:47;;;;;;;27.65;14.60;;;;;;;13.12;100.00;101668.81;5076537;28;20063;-85
2022/10/28 04:13:16;;;;;;;24.48;14.30;;;;;;;13.12;100.00;101660.88;5064466;28;20043;-85
2022/10/28 04:15:45;;;;;;;24.27;14.20;;;;;;;13.13;100.00;101669.69;5084622;28;20102;-85
2022/10/28 04:18:13;;;;;;;25.98;14.15;;;;;;;13.12;100.00;101666.16;5055124;28;20516;-85
2022/10/28 04:20:43;;;;;;;21.88;13.25;;;;;;;13.11;100.00;101667.03;5076697;28;20038;-85
2022/10/28 04:23:17;;;;;;;21.92;12.70;;;;;;;13.10;100.00;101662.63;5066009;28;20409;-85
2022/10/28 04:25:45;;;;;;;26.98;14.38;;;;;;;13.09;100.00;101668.78;5073335;28;20024;-85
2022/10/28 04:28:14;;;;;;;20.92;14.02;;;;;;;13.09;100.00;101660.84;5061284;28;20559;-85
2022/10/28 04:30:46;;;;;;;26.08;13.57;;;;;;;13.09;100.00;101667.91;5033485;28;20167;-85
2022/10/28 04:33:15;;;;;;;29.25;17.65;;;;;;;13.06;100.00;101668.75;5032940;28;20056;-85
2022/10/28 04:35:43;;;;;;;27.15;14.27;;;;;;;13.06;100.00;101668.75;5043620;28;20042;-85
2022/10/28 04:38:14;;;;;;;25.67;14.40;;;;;;;13.05;100.00;101669.63;5013690;28;20054;-85
2022/10/28 04:40:46;;;;;;;25.83;13.48;;;;;;;13.02;100.00;101657.28;5053580;28;20045;-85
2022/10/28 04:43:15;;;;;;;20.83;13.70;;;;;;;12.99;100.00;101651.97;5017363;28;20281;-85
2022/10/28 04:45:45;;;;;;;23.08;14.48;;;;;;;12.97;100.00;101647.56;5033250;28;20044;-85
2022/10/28 04:48:15;;;;;;;23.27;13.32;;;;;;;12.95;100.00;101651.91;5005910;28;20041;-85
2022/10/28 04:50:44;;;;;;;20.95;13.70;;;;;;;12.94;100.00;101645.75;5013727;28;20091;-86
2022/10/28 04:53:14;;;;;;;23.75;14.13;;;;;;;12.94;100.00;101644.88;5035505;28;20579;-87
2022/10/28 04:55:43;;;;;;;21.42;13.32;;;;;;;12.92;100.00;101642.22;5027603;28;20065;-85
2022/10/28 04:58:12;;;;;;;25.63;13.95;;;;;;;12.91;100.00;101642.19;5031953;28;20049;-85
2022/10/28 05:00:40;;;;;;;26.83;13.45;;;;;;;12.90;100.00;101641.31;5029599;28;20049;-85
2022/10/28 05:03:08;;;;;;;25.92;13.07;;;;;;;12.90;100.00;101646.63;5053220;28;20047;-85
2022/10/28 05:05:37;;;;;;;24.08;13.70;;;;;;;12.90;100.00;101643.09;5059095;28;20407;-85
2022/10/28 05:08:05;;;;;;;22.60;13.52;;;;;;;12.90;100.00;101645.75;5065240;28;20036;-85
2022/10/28 05:10:35;;;;;;;20.10;12.10;;;;;;;12.89;100.00;101642.19;5083356;28;20059;-84
2022/10/28 05:13:03;;;;;;;17.67;12.05;;;;;;;12.88;100.00;101643.06;5062590;28;20040;-85
2022/10/28 05:15:32;;;;;;;21.88;12.82;;;;;;;12.88;100.00;101643.06;5057584;28;20032;-80
2022/10/28 05:18:00;;;;;;;22.52;13.68;;;;;;;12.88;100.00;101637.78;5051879;28;20385;-85
2022/10/28 05:20:29;;;;;;;24.02;13.02;;;;;;;12.88;100.00;101638.66;5072615;28;20039;-84
2022/10/28 05:22:57;;;;;;;25.80;12.43;;;;;;;12.89;100.00;101636.88;5080614;28;20035;-84
2022/10/28 05:25:25;;;;;;;24.48;12.35;;;;;;;12.89;100.00;101631.59;5076195;28;20393;-84
2022/10/28 05:27:58;;;;;;;22.38;12.70;;;;;;;12.89;100.00;101636.88;5090324;28;20051;-85
2022/10/28 05:30:27;;;;;;;20.50;12.40;;;;;;;12.90;100.00;101629.88;5092312;28;20045;-84
2022/10/28 05:33:00;;;;;;;21.15;12.45;;;;;;;12.90;100.00;101630.75;5094720;28;20497;-85
2022/10/28 05:35:30;;;;;;;25.77;13.05;;;;;;;12.90;100.00;101629.88;5060962;28;20050;-84
2022/10/28 05:37:59;;;;;;;15.97;11.67;;;;;;;12.90;100.00;101628.09;5086695;28;20043;-84
2022/10/28 05:40:28;;;;;;;22.95;12.43;;;;;;;12.91;100.00;101621.94;5085557;28;20347;-84
2022/10/28 05:42:57;;;;;;;22.50;12.10;;;;;;;12.91;100.00;101618.38;5056478;28;20040;-84
2022/10/28 05:45:25;;;;;;;19.55;12.02;;;;;;;12.91;100.00;101621.03;5068530;28;20040;-84
2022/10/28 05:47:54;;;;;;;20.52;11.77;;;;;;;12.90;100.00;101614.00;5082296;28;20056;-85
2022/10/28 05:50:23;;;;;;;23.85;11.40;;;;;;;12.88;100.00;101611.34;5064579;28;20129;-86
2022/10/28 05:52:53;;;;;;;20.13;11.50;;;;;;;12.87;100.00;101606.91;5064604;28;20043;-85
2022/10/28 05:55:23;;;;;;;;;;;;;;;12.86;100.00;101600.75;5071493;28;20040;-85
2022/10/28 05:57:51;;;;;;;18.65;11.70;;;;;;;12.85;100.00;101599.00;5075191;28;19927;-86
2022/10/28 06:00:23;;;;;;;19.17;11.48;;;;;;;12.84;100.00;101607.78;5086240;28;20036;-83
2022/10/28 06:03:00;;;;;;;21.83;11.45;;;;;;;12.85;100.00;101613.94;5090416;28;20047;-84
2022/10/28 06:05:29;;;;;;;22.77;10.75;;;;;;;12.84;100.00;101612.19;5079608;28;20507;-84
2022/10/28 06:07:57;;;;;;;21.77;11.23;;;;;;;12.82;100.00;101606.91;5035250;27;20036;-84
2022/10/28 06:10:27;;;;;;;20.70;11.45;;;;;;;12.82;100.00;101609.53;5059536;28;20044;-85
2022/10/28 06:12:56;;;;;;;19.75;11.27;;;;;;;12.80;100.00;101611.28;5066086;28;20051;-85
2022/10/28 06:15:25;;;;;;;17.63;10.52;;;;;;;12.79;100.00;101608.63;5070134;28;20035;-85
2022/10/28 06:17:53;;;;;;;16.48;11.27;;;;;;;12.78;100.00;101618.34;5078398;28;20051;-85
2022/10/28 06:20:21;;;;;;;17.45;11.52;;;;;;;12.78;100.00;101614.78;5078951;28;20044;-85
2022/10/28 06:22:55;;;;;;;17.02;11.10;;;;;;;12.76;100.00;101609.50;5034240;28;20056;-87
2022/10/28 06:25:26;;;;;;;22.25;11.52;;;;;;;12.75;100.00;101613.00;5073168;28;20382;-85
2022/10/28 06:27:59;;;;;;;17.17;11.68;;;;;;;12.74;100.00;101613.91;5048866;28;20051;-85
2022/10/28 06:30:27;;;;;;;26.27;12.13;;;;;;;12.73;100.00;101609.47;5050863;28;20044;-86
2022/10/28 06:32:56;;;;;;;16.23;11.45;;;;;;;12.73;100.00;101609.47;5095439;28;20276;-85
2022/10/28 06:35:25;;;;;;;18.05;10.90;;;;;;;12.74;100.00;101610.34;5092722;28;20063;-87
2022/10/28 06:37:55;;;;;;;17.90;10.77;;;;;;;12.73;100.00;101603.31;5068179;28;22314;-87
2022/10/28 06:40:26;;;;;;;20.33;10.90;;;;;;;12.73;100.00;101601.53;5066647;28;20048;-86
2022/10/28 06:43:03;;;;;;;22.88;11.13;;;;;;;12.74;100.00;101599.78;5050580;28;20447;-85
2022/10/28 06:45:33;;;;;;;20.40;11.10;;;;;;;12.74;100.00;101598.03;5082721;28;20397;-86
2022/10/28 06:48:04;;;;;;;22.00;12.25;;;;;;;12.76;100.00;101598.03;5022223;28;20068;-86
2022/10/28 06:50:34;;;;;;;18.17;10.65;;;;;;;12.77;100.00;101598.03;5086547;28;20048;-86
2022/10/28 06:53:03;;;;;;;24.75;11.52;;;;;;;12.80;100.00;101613.06;5088858;28;20040;-85
2022/10/28 06:55:36;;;;;;;17.88;10.27;;;;;;;12.82;100.00;101606.00;5071417;28;20106;-86
2022/10/28 06:58:10;;;;;;;18.08;10.95;;;;;;;12.84;100.00;101599.84;5049084;28;20059;-85
2022/10/28 07:00:41;;;;;;;20.70;10.98;;;;;;;12.86;100.00;101595.44;5066954;28;20051;-85
2022/10/28 07:03:09;;;;;;;21.17;11.10;;;;;;;12.90;100.00;101606.06;5061198;28;20715;-85
2022/10/28 07:05:41;;;;;;;23.02;12.05;;;;;;;12.92;100.00;101602.53;5079527;28;20055;-85
2022/10/28 07:08:09;;;;;;;20.85;11.27;;;;;;;12.94;100.00;101598.13;5095295;28;20036;-85
2022/10/28 07:10:41;;;;;;;18.33;11.57;;;;;;;12.98;100.00;101599.91;5056893;28;20256;-86
2022/10/28 07:13:09;;;;;;;20.10;12.23;;;;;;;13.02;100.00;101596.44;5080011;28;20047;-86
2022/10/28 07:15:38;;;;;;;19.08;12.70;;;;;;;13.07;100.00;101599.09;5069582;28;20043;-86
2022/10/28 07:18:07;;;;;;;28.80;12.00;;;;;;;13.11;100.00;101606.16;5085771;28;20032;-85
2022/10/28 07:20:36;;;;;;;18.42;11.00;;;;;;;13.16;100.00;101614.13;5089249;28;20040;-86
2022/10/28 07:23:04;;;;;;;20.40;11.95;;;;;;;13.21;100.00;101617.66;5075676;28;20048;-85
2022/10/28 07:25:33;;;;;;;18.80;11.20;;;;;;;13.26;100.00;101611.53;5059132;28;20054;-87
2022/10/28 07:28:01;;;;;;;18.75;10.60;;;;;;;13.31;100.00;101618.63;5094226;28;20031;-85
2022/10/28 07:30:30;;;;;;;18.15;11.18;;;;;;;13.35;100.00;101621.31;5069819;28;20036;-87
2022/10/28 07:33:00;;;;;;;25.85;11.43;;;;;;;13.40;100.00;101618.66;5064614;28;20062;-86
2022/10/28 07:35:30;;;;;;;15.45;10.52;;;;;;;13.44;100.00;101621.34;5056360;28;20416;-86
2022/10/28 07:38:05;;;;;;;16.40;8.90;;;;;;;13.50;100.00;101620.47;5112890;28;20036;-85
2022/10/28 07:40:34;;;;;;;23.42;9.82;;;;;;;13.56;100.00;101609.91;5051088;28;20061;-87
2022/10/28 07:43:02;;;;;;;13.90;10.05;;;;;;;13.62;100.00;101609.91;5076144;28;20039;-86
2022/10/28 07:45:32;;;;;;;18.35;9.93;;;;;;;13.70;100.00;101611.69;5054518;28;20368;-87
2022/10/28 07:48:03;;;;;;;20.40;10.82;;;;;;;13.77;100.00;101608.19;5085027;28;20051;-87
2022/10/28 07:50:32;;;;;;;15.55;9.45;;;;;;;13.85;100.00;101619.69;5074266;28;20484;-87
2022/10/28 07:53:00;;;;;;;13.15;9.30;;;;;;;13.93;100.00;101625.00;5066779;28;20081;-86
2022/10/28 07:55:29;;;;;;;15.60;9.20;;;;;;;14.01;100.00;101631.22;5064407;28;20780;-87
2022/10/28 07:57:57;;;;;;;16.00;8.30;;;;;;;14.10;100.00;101631.22;5092142;27;20047;-85
2022/10/28 08:00:26;;;;;;;22.40;8.32;;;;;;;14.19;100.00;101628.56;5080552;28;20055;-88
2022/10/28 08:02:58;;;;;;;17.65;9.13;;;;;;;14.29;100.00;101644.47;5074326;28;20044;-85
2022/10/28 08:05:26;;;;;;;15.23;7.80;;;;;;;14.39;100.00;101638.31;5093133;28;20059;-85
2022/10/28 08:07:54;;;;;;;18.05;8.70;;;;;;;14.48;100.00;101632.09;5088657;28;20536;-84
2022/10/28 08:10:25;;;;;;;19.77;8.27;;;;;;;14.58;100.00;101631.25;5068182;28;20497;-83
2022/10/28 08:12:56;;;;;;;15.02;7.63;;;;;;;14.69;100.00;101629.47;5059902;28;20051;-85
2022/10/28 08:15:25;;;;;;;12.77;7.63;;;;;;;14.78;100.00;101634.78;5075256;27;20062;-87
2022/10/28 08:17:53;;;;;;;18.77;7.80;;;;;;;14.88;100.00;101635.63;5077570;28;20036;-85
2022/10/28 08:20:23;;;;;;;14.25;6.70;;;;;;;14.97;100.00;101645.31;5063067;28;20040;-86
2022/10/28 08:22:51;;;;;;;11.90;7.57;;;;;;;15.06;100.00;101639.13;5063579;28;20432;-86
2022/10/28 08:25:22;;;;;;;15.02;7.20;;;;;;;15.13;100.00;101625.81;5062080;28;20048;-87
2022/10/28 08:27:50;;;;;;;18.65;7.03;;;;;;;15.21;100.00;101625.78;5064872;28;20036;-86
2022/10/28 08:30:21;;;;;;;19.35;7.80;;;;;;;15.27;100.00;101615.13;5053500;28;20067;-86
2022/10/28 08:32:49;;;;;;;14.85;6.32;;;;;;;15.34;100.00;101623.97;5071995;28;20044;-86
2022/10/28 08:35:20;;;;;;;16.58;6.45;;;;;;;15.40;100.00;101629.25;5065174;28;20043;-86
2022/10/28 08:37:50;;;;;;;18.38;7.13;;;;;;;15.47;100.00;101636.31;5079772;28;20520;-86
2022/10/28 08:40:27;;;;;;;14.75;7.20;;;;;;;15.52;100.00;101628.31;5088607;28;20050;-86
2022/10/28 08:43:04;;;;;;;14.88;7.45;;;;;;;15.58;100.00;101618.56;5074243;28;20043;-87
2022/10/28 08:46:05;;;;;;;12.60;6.80;;;;;;;15.65;100.00;101622.06;5087819;27;20048;-88
2022/10/28 08:48:36;;;;;;;16.08;6.80;;;;;;;15.71;100.00;101634.44;5085748;28;20038;-86
2022/10/28 08:51:37;;;;;;;14.05;7.10;;;;;;;15.76;100.00;101632.66;5051519;28;20040;-86
2022/10/28 08:54:23;;;;;;;10.73;6.30;;;;;;;15.84;100.00;101625.53;5081776;28;20048;-86
2022/10/28 08:56:53;;;;;;;17.15;7.15;;;;;;;15.92;100.00;101623.69;5071633;28;20051;-86
2022/10/28 08:59:35;;;;;;;12.45;6.25;;;;;;;16.00;100.00;101631.63;5065865;28;20044;-84
2022/10/28 09:02:31;;;;;;;14.48;6.45;;;;;;;16.06;100.00;101626.25;5109242;28;20492;-85
2022/10/28 09:05:22;;;;;;;15.57;7.10;;;;;;;16.14;100.00;101639.50;5094034;28;20055;-87
2022/10/28 09:07:54;;;;;;;17.35;6.82;;;;;;;16.20;100.00;101635.91;5066692;28;20047;-87
2022/10/28 09:10:35;;;;;;;15.48;6.55;;;;;;;16.23;100.00;101636.75;5092788;28;20048;-87
2022/10/28 09:13:23;;;;;;;12.65;6.78;;;;;;;16.28;100.00;101632.31;5074658;28;20288;-88
2022/10/28 09:16:13;;;;;;;18.73;6.80;;;;;;;16.31;100.00;101639.38;5076962;28;20056;-86
2022/10/28 09:19:12;;;;;;;23.83;7.75;;;;;;;16.35;100.00;101647.31;5082918;28;20497;-86
2022/10/28 09:21:54;;;;;;;10.32;6.13;;;;;;;16.35;100.00;101636.69;5103541;28;20050;-87
2022/10/28 09:24:42;;;;;;;15.20;6.47;;;;;;;16.38;100.00;101633.97;5065751;27;20039;-86
2022/10/28 09:27:25;;;;;;;12.18;6.10;;;;;;;16.37;100.00;101632.22;5070187;28;21414;-87
2022/10/28 09:30:03;;;;;;;10.68;6.30;;;;;;;16.40;100.00;101636.63;5082039;28;20043;-87
2022/10/28 09:32:49;;;;;;;15.02;6.40;;;;;;;16.40;100.00;101636.63;5038773;28;20055;-85
2022/10/28 09:35:23;;;;;;;17.17;6.60;;;;;;;16.41;100.00;101638.41;5083524;28;20511;-86
2022/10/28 09:38:10;;;;;;;15.25;6.55;;;;;;;16.43;100.00;101641.06;5060889;28;20396;-86
2022/10/28 09:40:42;;;;;;;17.88;6.75;;;;;;;16.46;100.00;101646.34;5052610;28;20066;-85
2022/10/28 09:43:26;;;;;;;21.10;6.97;;;;;;;16.50;100.00;101637.44;5070536;28;20067;-86
2022/10/28 09:46:00;;;;;;;18.50;7.07;;;;;;;16.52;100.00;101632.97;5100646;27;20050;-86
2022/10/28 09:48:38;;;;;;;13.90;6.10;;;;;;;16.57;100.00;101649.78;5064001;27;20027;-88
2022/10/28 09:51:20;;;;;;;19.80;6.25;;;;;;;16.63;100.00;101646.19;5088769;28;20080;-86
2022/10/28 09:53:57;;;;;;;12.55;5.63;;;;;;;16.72;100.00;101644.31;5076612;28;23556;-86
2022/10/28 09:56:27;;;;;;;12.80;6.18;;;;;;;16.80;100.00;101640.72;5089430;28;20035;-86
2022/10/28 09:59:01;;;;;;;9.50;5.20;;;;;;;16.85;100.00;101639.81;5052213;28;20053;-86
2022/10/28 10:01:32;;;;;;;16.75;6.13;;;;;;;16.89;100.00;101641.53;5056770;28;20041;-86
2022/10/28 10:04:41;;;;;;;14.35;5.82;;;;;;;16.92;100.00;101638.84;5062212;28;20142;-85
2022/10/28 10:07:18;;;;;;;13.68;5.90;;;;;;;16.96;100.00;101631.72;5005663;28;20037;-86
2022/10/28 10:09:46;;;;;;;15.75;5.45;;;;;;;17.00;100.00;101630.78;5012895;28;20337;-86
2022/10/28 10:12:15;;;;;;;13.57;5.07;;;;;;;17.02;100.00;101620.97;4994515;28;20053;-86
2022/10/28 10:14:49;;;;;;;11.60;5.55;;;;;;;17.04;100.00;101640.47;4978597;28;20022;-85
2022/10/28 10:17:21;;;;;;;12.60;5.55;;;;;;;17.05;100.00;101638.69;5029418;28;20060;-85
2022/10/28 10:20:15;;;;;;;16.65;5.53;;;;;;;17.06;100.00;101638.69;5028924;28;20339;-85
2022/10/28 10:22:46;;;;;;;15.13;5.97;;;;;;;17.07;100.00;101640.47;4987530;28;20042;-84
2022/10/28 10:25:17;;;;;;;11.68;5.40;;;;;;;17.11;100.00;101641.31;5006070;28;20426;-86
2022/10/28 10:27:53;;;;;;;14.77;6.47;;;;;;;17.14;100.00;101646.59;4990758;28;20112;-87
2022/10/28 10:30:43;;;;;;;17.27;6.28;;;;;;;17.17;100.00;101645.69;4984774;28;20049;-86
2022/10/28 10:33:27;;;;;;;13.18;4.60;;;;;;;17.24;100.00;101647.34;5015735;28;20095;-87
2022/10/28 10:36:02;;;;;;;16.38;5.70;;;;;;;17.28;100.00;101642.00;5019171;28;20041;-87
2022/10/28 10:38:31;;;;;;;14.77;5.13;;;;;;;17.32;100.00;101635.72;5034876;28;20060;-88
2022/10/28 10:41:02;;;;;;;15.88;5.63;;;;;;;17.36;100.00;101635.69;5040231;28;20036;-86
2022/10/28 10:43:35;;;;;;;16.58;4.97;;;;;;;17.39;100.00;101633.88;5034368;28;20657;-85
2022/10/28 10:46:16;;;;;;;17.60;5.28;;;;;;;17.42;100.00;101628.50;5032386;28;20044;-85
2022/10/28 10:49:04;;;;;;;16.65;5.55;;;;;;;17.46;100.00;101634.66;5071698;28;20344;-85
2022/10/28 10:51:33;;;;;;;17.52;6.25;;;;;;;17.49;100.00;101637.31;5059129;28;20273;-85
2022/10/28 10:54:14;;;;;;;13.43;5.70;;;;;;;17.52;100.00;101627.50;5070278;28;20039;-86
2022/10/28 10:56:42;;;;;;;14.45;6.13;;;;;;;17.55;100.00;101631.88;5063168;28;20440;-86
2022/10/28 10:59:30;;;;;;;14.73;6.28;;;;;;;17.59;100.00;101632.72;5073945;28;20048;-86
2022/10/28 11:01:59;;;;;;;14.07;5.28;;;;;;;17.61;100.00;101633.59;5066761;28;20523;-85
2022/10/28 11:04:29;;;;;;;18.13;5.05;;;;;;;17.64;100.00;101628.22;5080301;28;20043;-85
2022/10/28 11:06:57;;;;;;;11.73;5.07;;;;;;;17.66;100.00;101619.28;5094914;28;20047;-87
2022/10/28 11:09:29;;;;;;;18.13;5.30;;;;;;;17.69;100.00;101619.25;5053470;28;20058;-84
2022/10/28 11:11:59;;;;;;;13.52;5.05;;;;;;;17.72;100.00;101621.88;5105306;27;20507;-83
2022/10/28 11:14:31;;;;;;;13.05;6.03;;;;;;;17.74;100.00;101612.06;5077650;28;20035;-85
2022/10/28 11:17:01;;;;;;;16.73;5.35;;;;;;;17.79;100.00;101601.34;5071664;28;20058;-85
2022/10/28 11:19:34;;;;;;;19.88;6.63;;;;;;;17.85;100.00;101603.94;5067418;27;20145;-84
2022/10/28 11:22:23;;;;;;;16.63;6.13;;;;;;;17.91;100.00;101598.50;5079221;28;20054;-85
2022/10/28 11:25:19;;;;;;;12.80;5.75;;;;;;;17.94;100.00;101608.28;5107573;28;20062;-86
2022/10/28 11:28:07;;;;;;;11.18;5.15;;;;;;;17.93;100.00;101599.38;5084173;28;20044;-85
2022/10/28 11:30:52;;;;;;;18.58;5.30;;;;;;;17.96;100.00;101589.56;5082859;28;20040;-88
2022/10/28 11:33:42;;;;;;;12.63;4.95;;;;;;;17.98;100.00;101590.44;5080412;28;20052;-85
2022/10/28 11:36:31;;;;;;;22.50;6.20;;;;;;;18.01;100.00;101590.38;5088450;28;20461;-85